sensor_id;sensor_type;location;lat;lon;timestamp;P1;durP1;ratioP1;P2;durP2;ratioP2
19782;SDS011;10051;40.294;-3.754;2023-04-03T00:01:27;2.63;;;0.70;;
19782;SDS011;10051;40.294;-3.754;2023-04-03T00:03:53;2.85;;;0.80;;
19782;SDS011;10051;40.294;-3.754;2023-04-03T00:06:19;3.67;;;0.70;;
19782;SDS011;10051;40.294;-3.754;2023-04-03T00:08:45;2.78;;;0.70;;
19782;SDS011;10051;40.294;-3.754;2023-04-03T00:11:11;2.35;;;0.63;;
19782;SDS011;10051;40.294;-3.754;2023-04-03T00:13:36;5.03;;;0.68;;
19782;SDS011;10051;40.294;-3.754;2023-04-03T00:16:03;3.25;;;0.70;;
19782;SDS011;10051;40.294;-3.754;2023-04-03T00:18:29;4.28;;;0.70;;
19782;SDS011;10051;40.294;-3.754;2023-04-03T00:20:55;2.75;;;0.75;;
19782;SDS011;10051;40.294;-3.754;2023-04-03T00:23:20;3.67;;;0.90;;
19782;SDS011;10051;40.294;-3.754;2023-04-03T00:25:46;5.10;;;0.80;;
19782;SDS011;10051;40.294;-3.754;2023-04-03T00:28:11;3.58;;;0.80;;
19782;SDS011;10051;40.294;-3.754;2023-04-03T00:30:37;2.10;;;0.60;;
19782;SDS011;10051;40.294;-3.754;2023-04-03T00:33:02;2.85;;;0.60;;
19782;SDS011;10051;40.294;-3.754;2023-04-03T00:35:28;2.47;;;0.80;;
19782;SDS011;10051;40.294;-3.754;2023-04-03T00:37:54;3.22;;;0.75;;
19782;SDS011;10051;40.294;-3.754;2023-04-03T00:40:21;1.20;;;0.68;;
19782;SDS011;10051;40.294;-3.754;2023-04-03T00:42:51;3.33;;;0.80;;
19782;SDS011;10051;40.294;-3.754;2023-04-03T00:45:26;3.05;;;0.68;;
19782;SDS011;10051;40.294;-3.754;2023-04-03T00:48:03;2.13;;;0.60;;
19782;SDS011;10051;40.294;-3.754;2023-04-03T00:50:33;1.90;;;0.70;;
19782;SDS011;10051;40.294;-3.754;2023-04-03T00:53:02;2.40;;;0.80;;
19782;SDS011;10051;40.294;-3.754;2023-04-03T00:55:29;4.22;;;1.00;;
19782;SDS011;10051;40.294;-3.754;2023-04-03T00:57:56;2.55;;;0.68;;
19782;SDS011;10051;40.294;-3.754;2023-04-03T01:00:22;1.90;;;1.13;;
19782;SDS011;10051;40.294;-3.754;2023-04-03T01:02:50;3.63;;;0.80;;
19782;SDS011;10051;40.294;-3.754;2023-04-03T01:05:16;1.85;;;0.70;;
19782;SDS011;10051;40.294;-3.754;2023-04-03T01:07:44;2.65;;;0.80;;
19782;SDS011;10051;40.294;-3.754;2023-04-03T01:10:11;3.78;;;0.68;;
19782;SDS011;10051;40.294;-3.754;2023-04-03T01:12:40;2.63;;;0.80;;
19782;SDS011;10051;40.294;-3.754;2023-04-03T01:15:09;3.03;;;0.80;;
19782;SDS011;10051;40.294;-3.754;2023-04-03T01:17:45;5.75;;;0.98;;
19782;SDS011;10051;40.294;-3.754;2023-04-03T01:22:59;4.05;;;1.00;;
19782;SDS011;10051;40.294;-3.754;2023-04-03T01:28:07;5.50;;;1.00;;
19782;SDS011;10051;40.294;-3.754;2023-04-03T01:30:36;6.85;;;0.75;;
19782;SDS011;10051;40.294;-3.754;2023-04-03T01:33:09;4.68;;;1.10;;
19782;SDS011;10051;40.294;-3.754;2023-04-03T01:35:35;1.98;;;0.73;;
19782;SDS011;10051;40.294;-3.754;2023-04-03T01:38:00;2.63;;;0.70;;
19782;SDS011;10051;40.294;-3.754;2023-04-03T01:40:26;4.53;;;0.80;;
19782;SDS011;10051;40.294;-3.754;2023-04-03T01:42:51;3.50;;;0.90;;
19782;SDS011;10051;40.294;-3.754;2023-04-03T01:45:17;3.42;;;0.80;;
19782;SDS011;10051;40.294;-3.754;2023-04-03T01:47:42;3.70;;;0.80;;
19782;SDS011;10051;40.294;-3.754;2023-04-03T01:50:08;5.80;;;0.80;;
19782;SDS011;10051;40.294;-3.754;2023-04-03T01:52:34;3.20;;;0.98;;
19782;SDS011;10051;40.294;-3.754;2023-04-03T01:54:59;3.45;;;0.70;;
19782;SDS011;10051;40.294;-3.754;2023-04-03T01:57:25;3.55;;;0.90;;
19782;SDS011;10051;40.294;-3.754;2023-04-03T01:59:50;2.15;;;0.80;;
19782;SDS011;10051;40.294;-3.754;2023-04-03T02:02:16;2.15;;;0.68;;
19782;SDS011;10051;40.294;-3.754;2023-04-03T02:04:41;4.05;;;1.05;;
19782;SDS011;10051;40.294;-3.754;2023-04-03T02:07:07;4.32;;;0.80;;
19782;SDS011;10051;40.294;-3.754;2023-04-03T02:09:32;3.75;;;0.98;;
19782;SDS011;10051;40.294;-3.754;2023-04-03T02:11:58;7.20;;;1.13;;
19782;SDS011;10051;40.294;-3.754;2023-04-03T02:14:24;2.33;;;0.73;;
19782;SDS011;10051;40.294;-3.754;2023-04-03T02:16:49;3.72;;;0.90;;
19782;SDS011;10051;40.294;-3.754;2023-04-03T02:19:15;4.40;;;1.08;;
19782;SDS011;10051;40.294;-3.754;2023-04-03T02:21:41;5.90;;;1.13;;
19782;SDS011;10051;40.294;-3.754;2023-04-03T02:24:06;5.15;;;0.80;;
19782;SDS011;10051;40.294;-3.754;2023-04-03T02:26:32;2.95;;;0.90;;
19782;SDS011;10051;40.294;-3.754;2023-04-03T02:28:58;4.68;;;0.90;;
19782;SDS011;10051;40.294;-3.754;2023-04-03T02:31:24;8.80;;;1.08;;
19782;SDS011;10051;40.294;-3.754;2023-04-03T02:33:50;8.50;;;1.38;;
19782;SDS011;10051;40.294;-3.754;2023-04-03T02:36:15;3.47;;;0.85;;
19782;SDS011;10051;40.294;-3.754;2023-04-03T02:38:41;7.90;;;1.17;;
19782;SDS011;10051;40.294;-3.754;2023-04-03T02:41:07;4.25;;;1.00;;
19782;SDS011;10051;40.294;-3.754;2023-04-03T02:43:35;5.93;;;1.30;;
19782;SDS011;10051;40.294;-3.754;2023-04-03T02:46:01;3.67;;;1.13;;
19782;SDS011;10051;40.294;-3.754;2023-04-03T02:48:26;3.72;;;1.20;;
19782;SDS011;10051;40.294;-3.754;2023-04-03T02:50:52;4.70;;;1.30;;
19782;SDS011;10051;40.294;-3.754;2023-04-03T02:53:18;2.88;;;1.30;;
19782;SDS011;10051;40.294;-3.754;2023-04-03T02:55:44;6.00;;;1.38;;
19782;SDS011;10051;40.294;-3.754;2023-04-03T02:58:10;5.68;;;1.40;;
19782;SDS011;10051;40.294;-3.754;2023-04-03T03:00:35;5.30;;;1.40;;
19782;SDS011;10051;40.294;-3.754;2023-04-03T03:03:01;5.05;;;1.15;;
19782;SDS011;10051;40.294;-3.754;2023-04-03T03:05:27;5.35;;;1.27;;
19782;SDS011;10051;40.294;-3.754;2023-04-03T03:07:53;4.30;;;0.80;;
19782;SDS011;10051;40.294;-3.754;2023-04-03T03:10:19;3.97;;;1.20;;
19782;SDS011;10051;40.294;-3.754;2023-04-03T03:12:45;7.65;;;1.35;;
19782;SDS011;10051;40.294;-3.754;2023-04-03T03:15:11;4.68;;;1.10;;
19782;SDS011;10051;40.294;-3.754;2023-04-03T03:17:37;3.50;;;0.95;;
19782;SDS011;10051;40.294;-3.754;2023-04-03T03:20:03;5.68;;;1.00;;
19782;SDS011;10051;40.294;-3.754;2023-04-03T03:22:30;6.32;;;1.30;;
19782;SDS011;10051;40.294;-3.754;2023-04-03T03:24:55;6.07;;;1.17;;
19782;SDS011;10051;40.294;-3.754;2023-04-03T03:27:21;4.90;;;1.20;;
19782;SDS011;10051;40.294;-3.754;2023-04-03T03:29:47;3.92;;;1.17;;
19782;SDS011;10051;40.294;-3.754;2023-04-03T03:32:12;5.22;;;1.27;;
19782;SDS011;10051;40.294;-3.754;2023-04-03T03:34:38;9.32;;;1.52;;
19782;SDS011;10051;40.294;-3.754;2023-04-03T03:37:03;7.63;;;1.00;;
19782;SDS011;10051;40.294;-3.754;2023-04-03T03:39:29;3.83;;;1.30;;
19782;SDS011;10051;40.294;-3.754;2023-04-03T03:41:55;5.72;;;1.05;;
19782;SDS011;10051;40.294;-3.754;2023-04-03T03:44:21;8.52;;;1.95;;
19782;SDS011;10051;40.294;-3.754;2023-04-03T03:46:46;6.43;;;1.08;;
19782;SDS011;10051;40.294;-3.754;2023-04-03T03:49:12;6.03;;;1.15;;
19782;SDS011;10051;40.294;-3.754;2023-04-03T03:51:38;3.03;;;1.02;;
19782;SDS011;10051;40.294;-3.754;2023-04-03T03:54:05;4.45;;;1.10;;
19782;SDS011;10051;40.294;-3.754;2023-04-03T03:56:30;2.25;;;0.90;;
19782;SDS011;10051;40.294;-3.754;2023-04-03T03:58:56;4.90;;;1.10;;
19782;SDS011;10051;40.294;-3.754;2023-04-03T04:01:22;4.90;;;1.10;;
19782;SDS011;10051;40.294;-3.754;2023-04-03T04:03:48;4.77;;;1.00;;
19782;SDS011;10051;40.294;-3.754;2023-04-03T04:06:14;2.78;;;1.00;;
19782;SDS011;10051;40.294;-3.754;2023-04-03T04:08:40;4.43;;;1.10;;
19782;SDS011;10051;40.294;-3.754;2023-04-03T04:11:06;4.90;;;1.13;;
19782;SDS011;10051;40.294;-3.754;2023-04-03T04:13:31;4.10;;;1.30;;
19782;SDS011;10051;40.294;-3.754;2023-04-03T04:15:57;5.83;;;1.00;;
19782;SDS011;10051;40.294;-3.754;2023-04-03T04:18:23;4.03;;;1.00;;
19782;SDS011;10051;40.294;-3.754;2023-04-03T04:20:49;6.17;;;1.40;;
19782;SDS011;10051;40.294;-3.754;2023-04-03T04:23:15;5.43;;;1.10;;
19782;SDS011;10051;40.294;-3.754;2023-04-03T04:25:43;4.68;;;1.20;;
19782;SDS011;10051;40.294;-3.754;2023-04-03T04:28:10;4.77;;;1.10;;
19782;SDS011;10051;40.294;-3.754;2023-04-03T04:30:36;4.50;;;1.30;;
19782;SDS011;10051;40.294;-3.754;2023-04-03T04:33:02;4.10;;;1.23;;
19782;SDS011;10051;40.294;-3.754;2023-04-03T04:35:27;5.10;;;1.17;;
19782;SDS011;10051;40.294;-3.754;2023-04-03T04:37:53;4.60;;;1.10;;
19782;SDS011;10051;40.294;-3.754;2023-04-03T04:40:19;9.00;;;1.20;;
19782;SDS011;10051;40.294;-3.754;2023-04-03T04:42:45;2.17;;;0.82;;
19782;SDS011;10051;40.294;-3.754;2023-04-03T04:45:10;6.27;;;1.20;;
19782;SDS011;10051;40.294;-3.754;2023-04-03T04:47:36;9.70;;;1.38;;
19782;SDS011;10051;40.294;-3.754;2023-04-03T04:50:01;5.97;;;1.20;;
19782;SDS011;10051;40.294;-3.754;2023-04-03T04:52:27;4.90;;;1.02;;
19782;SDS011;10051;40.294;-3.754;2023-04-03T04:54:52;4.40;;;1.05;;
19782;SDS011;10051;40.294;-3.754;2023-04-03T04:57:18;6.60;;;1.20;;
19782;SDS011;10051;40.294;-3.754;2023-04-03T04:59:43;3.67;;;1.17;;
19782;SDS011;10051;40.294;-3.754;2023-04-03T05:02:09;4.53;;;1.00;;
19782;SDS011;10051;40.294;-3.754;2023-04-03T05:04:34;2.77;;;1.00;;
19782;SDS011;10051;40.294;-3.754;2023-04-03T05:07:00;6.63;;;1.23;;
19782;SDS011;10051;40.294;-3.754;2023-04-03T05:09:26;3.20;;;1.00;;
19782;SDS011;10051;40.294;-3.754;2023-04-03T05:11:51;6.77;;;1.03;;
19782;SDS011;10051;40.294;-3.754;2023-04-03T05:14:17;4.43;;;1.00;;
19782;SDS011;10051;40.294;-3.754;2023-04-03T05:16:42;5.27;;;1.20;;
19782;SDS011;10051;40.294;-3.754;2023-04-03T05:19:08;5.93;;;1.30;;
19782;SDS011;10051;40.294;-3.754;2023-04-03T05:21:33;5.20;;;1.43;;
19782;SDS011;10051;40.294;-3.754;2023-04-03T05:23:59;5.22;;;1.50;;
19782;SDS011;10051;40.294;-3.754;2023-04-03T05:26:28;5.17;;;1.30;;
19782;SDS011;10051;40.294;-3.754;2023-04-03T05:28:57;11.43;;;1.67;;
19782;SDS011;10051;40.294;-3.754;2023-04-03T05:31:22;5.37;;;1.40;;
19782;SDS011;10051;40.294;-3.754;2023-04-03T05:33:48;7.53;;;1.10;;
19782;SDS011;10051;40.294;-3.754;2023-04-03T05:36:14;5.05;;;1.25;;
19782;SDS011;10051;40.294;-3.754;2023-04-03T05:38:40;6.60;;;1.27;;
19782;SDS011;10051;40.294;-3.754;2023-04-03T05:41:06;4.37;;;1.20;;
19782;SDS011;10051;40.294;-3.754;2023-04-03T05:43:31;2.13;;;0.90;;
19782;SDS011;10051;40.294;-3.754;2023-04-03T05:45:58;5.83;;;1.20;;
19782;SDS011;10051;40.294;-3.754;2023-04-03T05:48:24;6.28;;;1.15;;
19782;SDS011;10051;40.294;-3.754;2023-04-03T05:50:50;5.78;;;1.23;;
19782;SDS011;10051;40.294;-3.754;2023-04-03T05:53:17;5.77;;;1.10;;
19782;SDS011;10051;40.294;-3.754;2023-04-03T05:55:47;3.83;;;1.10;;
19782;SDS011;10051;40.294;-3.754;2023-04-03T05:58:12;3.80;;;0.90;;
19782;SDS011;10051;40.294;-3.754;2023-04-03T06:00:38;7.60;;;1.10;;
19782;SDS011;10051;40.294;-3.754;2023-04-03T06:03:04;8.23;;;1.17;;
19782;SDS011;10051;40.294;-3.754;2023-04-03T06:05:30;7.53;;;1.40;;
19782;SDS011;10051;40.294;-3.754;2023-04-03T06:07:55;5.47;;;1.13;;
19782;SDS011;10051;40.294;-3.754;2023-04-03T06:10:22;8.23;;;1.33;;
19782;SDS011;10051;40.294;-3.754;2023-04-03T06:12:47;7.70;;;1.40;;
19782;SDS011;10051;40.294;-3.754;2023-04-03T06:15:13;5.63;;;1.50;;
19782;SDS011;10051;40.294;-3.754;2023-04-03T06:17:39;5.97;;;1.40;;
19782;SDS011;10051;40.294;-3.754;2023-04-03T06:20:05;13.63;;;1.93;;
19782;SDS011;10051;40.294;-3.754;2023-04-03T06:22:31;14.40;;;2.10;;
19782;SDS011;10051;40.294;-3.754;2023-04-03T06:24:57;14.50;;;1.73;;
19782;SDS011;10051;40.294;-3.754;2023-04-03T06:27:22;10.37;;;1.67;;
19782;SDS011;10051;40.294;-3.754;2023-04-03T06:29:48;14.23;;;1.70;;
19782;SDS011;10051;40.294;-3.754;2023-04-03T06:32:14;16.03;;;1.70;;
19782;SDS011;10051;40.294;-3.754;2023-04-03T06:34:40;12.03;;;1.60;;
19782;SDS011;10051;40.294;-3.754;2023-04-03T06:37:10;10.77;;;1.60;;
19782;SDS011;10051;40.294;-3.754;2023-04-03T06:39:45;10.50;;;1.67;;
19782;SDS011;10051;40.294;-3.754;2023-04-03T06:42:11;10.30;;;1.60;;
19782;SDS011;10051;40.294;-3.754;2023-04-03T06:44:37;11.73;;;1.40;;
19782;SDS011;10051;40.294;-3.754;2023-04-03T06:47:02;6.27;;;1.43;;
19782;SDS011;10051;40.294;-3.754;2023-04-03T06:49:28;13.48;;;1.50;;
19782;SDS011;10051;40.294;-3.754;2023-04-03T06:51:54;8.18;;;1.10;;
19782;SDS011;10051;40.294;-3.754;2023-04-03T06:54:21;8.32;;;1.48;;
19782;SDS011;10051;40.294;-3.754;2023-04-03T06:56:47;4.88;;;1.20;;
19782;SDS011;10051;40.294;-3.754;2023-04-03T06:59:13;6.68;;;1.20;;
19782;SDS011;10051;40.294;-3.754;2023-04-03T07:01:40;12.35;;;1.50;;
19782;SDS011;10051;40.294;-3.754;2023-04-03T07:04:05;9.95;;;1.60;;
19782;SDS011;10051;40.294;-3.754;2023-04-03T07:06:32;6.75;;;1.25;;
19782;SDS011;10051;40.294;-3.754;2023-04-03T07:08:58;6.10;;;1.40;;
19782;SDS011;10051;40.294;-3.754;2023-04-03T07:11:24;12.05;;;1.42;;
19782;SDS011;10051;40.294;-3.754;2023-04-03T07:13:51;6.25;;;1.50;;
19782;SDS011;10051;40.294;-3.754;2023-04-03T07:16:17;10.25;;;2.00;;
19782;SDS011;10051;40.294;-3.754;2023-04-03T07:18:43;7.97;;;1.52;;
19782;SDS011;10051;40.294;-3.754;2023-04-03T07:21:09;8.07;;;1.30;;
19782;SDS011;10051;40.294;-3.754;2023-04-03T07:23:35;9.60;;;1.60;;
19782;SDS011;10051;40.294;-3.754;2023-04-03T07:26:02;6.82;;;1.50;;
19782;SDS011;10051;40.294;-3.754;2023-04-03T07:28:27;6.75;;;1.55;;
19782;SDS011;10051;40.294;-3.754;2023-04-03T07:30:54;12.93;;;1.83;;
19782;SDS011;10051;40.294;-3.754;2023-04-03T07:33:26;5.70;;;1.40;;
19782;SDS011;10051;40.294;-3.754;2023-04-03T07:35:52;4.68;;;1.58;;
19782;SDS011;10051;40.294;-3.754;2023-04-03T07:38:21;8.00;;;1.38;;
19782;SDS011;10051;40.294;-3.754;2023-04-03T07:40:47;7.53;;;1.40;;
19782;SDS011;10051;40.294;-3.754;2023-04-03T07:43:17;7.25;;;1.60;;
19782;SDS011;10051;40.294;-3.754;2023-04-03T07:45:45;6.05;;;1.30;;
19782;SDS011;10051;40.294;-3.754;2023-04-03T07:48:15;6.55;;;1.40;;
19782;SDS011;10051;40.294;-3.754;2023-04-03T07:50:42;6.78;;;1.20;;
19782;SDS011;10051;40.294;-3.754;2023-04-03T07:53:08;5.78;;;1.27;;
19782;SDS011;10051;40.294;-3.754;2023-04-03T07:55:34;10.52;;;1.50;;
19782;SDS011;10051;40.294;-3.754;2023-04-03T07:58:02;5.72;;;1.30;;
19782;SDS011;10051;40.294;-3.754;2023-04-03T08:00:28;11.02;;;1.90;;
19782;SDS011;10051;40.294;-3.754;2023-04-03T08:02:54;4.90;;;1.75;;
19782;SDS011;10051;40.294;-3.754;2023-04-03T08:05:20;5.07;;;1.50;;
19782;SDS011;10051;40.294;-3.754;2023-04-03T08:07:46;5.75;;;1.73;;
19782;SDS011;10051;40.294;-3.754;2023-04-03T08:10:13;8.50;;;1.35;;
19782;SDS011;10051;40.294;-3.754;2023-04-03T08:12:39;5.05;;;1.20;;
19782;SDS011;10051;40.294;-3.754;2023-04-03T08:15:05;4.40;;;1.38;;
19782;SDS011;10051;40.294;-3.754;2023-04-03T08:17:33;6.88;;;1.52;;
19782;SDS011;10051;40.294;-3.754;2023-04-03T08:20:05;8.00;;;1.63;;
19782;SDS011;10051;40.294;-3.754;2023-04-03T08:22:32;6.22;;;1.52;;
19782;SDS011;10051;40.294;-3.754;2023-04-03T08:24:58;6.05;;;1.50;;
19782;SDS011;10051;40.294;-3.754;2023-04-03T08:27:24;8.70;;;1.63;;
19782;SDS011;10051;40.294;-3.754;2023-04-03T08:29:51;4.70;;;1.40;;
19782;SDS011;10051;40.294;-3.754;2023-04-03T08:32:17;5.72;;;1.67;;
19782;SDS011;10051;40.294;-3.754;2023-04-03T08:34:43;11.00;;;1.63;;
19782;SDS011;10051;40.294;-3.754;2023-04-03T08:37:08;5.57;;;1.70;;
19782;SDS011;10051;40.294;-3.754;2023-04-03T08:39:34;8.38;;;1.70;;
19782;SDS011;10051;40.294;-3.754;2023-04-03T08:42:02;8.00;;;1.80;;
19782;SDS011;10051;40.294;-3.754;2023-04-03T08:50:10;8.55;;;1.60;;
19782;SDS011;10051;40.294;-3.754;2023-04-03T08:58:03;5.63;;;1.90;;
19782;SDS011;10051;40.294;-3.754;2023-04-03T09:00:34;12.27;;;1.92;;
19782;SDS011;10051;40.294;-3.754;2023-04-03T09:03:11;4.75;;;1.50;;
19782;SDS011;10051;40.294;-3.754;2023-04-03T09:05:40;10.13;;;2.78;;
19782;SDS011;10051;40.294;-3.754;2023-04-03T09:13:46;7.20;;;1.38;;
19782;SDS011;10051;40.294;-3.754;2023-04-03T09:18:53;7.53;;;1.52;;
19782;SDS011;10051;40.294;-3.754;2023-04-03T09:21:29;6.45;;;1.42;;
19782;SDS011;10051;40.294;-3.754;2023-04-03T09:24:00;12.82;;;1.70;;
19782;SDS011;10051;40.294;-3.754;2023-04-03T09:26:30;11.13;;;1.50;;
19782;SDS011;10051;40.294;-3.754;2023-04-03T09:29:02;6.38;;;1.60;;
19782;SDS011;10051;40.294;-3.754;2023-04-03T09:31:37;5.93;;;1.55;;
19782;SDS011;10051;40.294;-3.754;2023-04-03T09:34:06;6.57;;;1.55;;
19782;SDS011;10051;40.294;-3.754;2023-04-03T09:36:55;8.38;;;1.60;;
19782;SDS011;10051;40.294;-3.754;2023-04-03T09:39:28;7.93;;;1.70;;
19782;SDS011;10051;40.294;-3.754;2023-04-03T09:41:55;8.45;;;1.40;;
19782;SDS011;10051;40.294;-3.754;2023-04-03T09:44:27;10.90;;;1.70;;
19782;SDS011;10051;40.294;-3.754;2023-04-03T09:49:49;8.18;;;1.55;;
19782;SDS011;10051;40.294;-3.754;2023-04-03T09:52:19;5.78;;;1.50;;
19782;SDS011;10051;40.294;-3.754;2023-04-03T09:54:49;5.40;;;1.52;;
19782;SDS011;10051;40.294;-3.754;2023-04-03T09:57:14;11.35;;;1.60;;
19782;SDS011;10051;40.294;-3.754;2023-04-03T09:59:42;11.52;;;2.10;;
19782;SDS011;10051;40.294;-3.754;2023-04-03T10:04:37;9.20;;;1.52;;
19782;SDS011;10051;40.294;-3.754;2023-04-03T10:10:00;5.88;;;1.65;;
19782;SDS011;10051;40.294;-3.754;2023-04-03T10:12:41;8.05;;;1.70;;
19782;SDS011;10051;40.294;-3.754;2023-04-03T10:15:11;7.18;;;1.60;;
19782;SDS011;10051;40.294;-3.754;2023-04-03T10:17:57;8.32;;;1.70;;
19782;SDS011;10051;40.294;-3.754;2023-04-03T10:20:32;6.90;;;1.70;;
19782;SDS011;10051;40.294;-3.754;2023-04-03T10:23:15;7.28;;;2.10;;
19782;SDS011;10051;40.294;-3.754;2023-04-03T10:26:07;8.43;;;1.77;;
19782;SDS011;10051;40.294;-3.754;2023-04-03T10:34:50;8.00;;;2.08;;
19782;SDS011;10051;40.294;-3.754;2023-04-03T10:37:30;6.35;;;2.08;;
19782;SDS011;10051;40.294;-3.754;2023-04-03T10:40:05;8.20;;;2.13;;
19782;SDS011;10051;40.294;-3.754;2023-04-03T10:42:50;7.03;;;2.53;;
19782;SDS011;10051;40.294;-3.754;2023-04-03T10:58:25;10.20;;;2.45;;
19782;SDS011;10051;40.294;-3.754;2023-04-03T11:00:56;10.55;;;2.42;;
19782;SDS011;10051;40.294;-3.754;2023-04-03T11:03:48;6.68;;;2.40;;
19782;SDS011;10051;40.294;-3.754;2023-04-03T11:06:18;6.47;;;2.13;;
19782;SDS011;10051;40.294;-3.754;2023-04-03T11:08:50;6.25;;;2.20;;
19782;SDS011;10051;40.294;-3.754;2023-04-03T11:11:26;5.35;;;2.15;;
19782;SDS011;10051;40.294;-3.754;2023-04-03T11:13:57;6.40;;;2.20;;
19782;SDS011;10051;40.294;-3.754;2023-04-03T11:16:26;4.85;;;2.10;;
19782;SDS011;10051;40.294;-3.754;2023-04-03T11:18:56;4.80;;;1.85;;
19782;SDS011;10051;40.294;-3.754;2023-04-03T11:24:24;10.52;;;2.08;;
19782;SDS011;10051;40.294;-3.754;2023-04-03T11:26:52;9.63;;;2.45;;
19782;SDS011;10051;40.294;-3.754;2023-04-03T11:29:23;7.25;;;2.50;;
19782;SDS011;10051;40.294;-3.754;2023-04-03T11:34:42;5.30;;;2.30;;
19782;SDS011;10051;40.294;-3.754;2023-04-03T11:37:24;7.75;;;2.50;;
19782;SDS011;10051;40.294;-3.754;2023-04-03T11:39:55;7.65;;;2.08;;
19782;SDS011;10051;40.294;-3.754;2023-04-03T11:42:34;7.57;;;2.30;;
19782;SDS011;10051;40.294;-3.754;2023-04-03T11:50:56;4.63;;;2.20;;
19782;SDS011;10051;40.294;-3.754;2023-04-03T11:53:38;9.75;;;2.30;;
19782;SDS011;10051;40.294;-3.754;2023-04-03T12:04:18;5.22;;;2.30;;
19782;SDS011;10051;40.294;-3.754;2023-04-03T12:11:59;4.32;;;2.20;;
19782;SDS011;10051;40.294;-3.754;2023-04-03T12:14:45;4.70;;;2.53;;
19782;SDS011;10051;40.294;-3.754;2023-04-03T12:17:16;7.65;;;2.22;;
19782;SDS011;10051;40.294;-3.754;2023-04-03T12:19:49;8.85;;;2.40;;
19782;SDS011;10051;40.294;-3.754;2023-04-03T12:22:16;6.30;;;2.42;;
19782;SDS011;10051;40.294;-3.754;2023-04-03T12:24:46;8.20;;;2.50;;
19782;SDS011;10051;40.294;-3.754;2023-04-03T12:29:59;6.68;;;2.38;;
19782;SDS011;10051;40.294;-3.754;2023-04-03T12:35:24;6.13;;;2.70;;
19782;SDS011;10051;40.294;-3.754;2023-04-03T12:44:46;10.07;;;2.30;;
19782;SDS011;10051;40.294;-3.754;2023-04-03T12:47:19;4.47;;;2.20;;
19782;SDS011;10051;40.294;-3.754;2023-04-03T12:49:50;3.17;;;1.90;;
19782;SDS011;10051;40.294;-3.754;2023-04-03T12:52:35;5.05;;;1.95;;
19782;SDS011;10051;40.294;-3.754;2023-04-03T12:55:14;6.55;;;1.98;;
19782;SDS011;10051;40.294;-3.754;2023-04-03T12:57:41;5.80;;;1.98;;
19782;SDS011;10051;40.294;-3.754;2023-04-03T13:02:51;6.97;;;2.40;;
19782;SDS011;10051;40.294;-3.754;2023-04-03T13:05:18;6.78;;;2.00;;
19782;SDS011;10051;40.294;-3.754;2023-04-03T13:07:47;5.78;;;2.20;;
19782;SDS011;10051;40.294;-3.754;2023-04-03T13:10:16;6.30;;;1.95;;
19782;SDS011;10051;40.294;-3.754;2023-04-03T13:12:46;6.85;;;1.85;;
19782;SDS011;10051;40.294;-3.754;2023-04-03T13:17:54;5.63;;;2.10;;
19782;SDS011;10051;40.294;-3.754;2023-04-03T13:22:48;4.95;;;2.08;;
19782;SDS011;10051;40.294;-3.754;2023-04-03T13:25:36;5.88;;;1.98;;
19782;SDS011;10051;40.294;-3.754;2023-04-03T13:28:06;3.17;;;1.80;;
19782;SDS011;10051;40.294;-3.754;2023-04-03T13:30:37;2.60;;;1.30;;
19782;SDS011;10051;40.294;-3.754;2023-04-03T13:33:04;3.92;;;1.50;;
19782;SDS011;10051;40.294;-3.754;2023-04-03T13:35:42;2.70;;;1.38;;
19782;SDS011;10051;40.294;-3.754;2023-04-03T13:38:42;4.03;;;1.50;;
19782;SDS011;10051;40.294;-3.754;2023-04-03T13:41:03;2.30;;;1.20;;
19782;SDS011;10051;40.294;-3.754;2023-04-03T13:43:48;3.30;;;1.20;;
19782;SDS011;10051;40.294;-3.754;2023-04-03T13:48:41;4.68;;;1.10;;
19782;SDS011;10051;40.294;-3.754;2023-04-03T13:53:42;1.80;;;1.00;;
19782;SDS011;10051;40.294;-3.754;2023-04-03T13:59:02;2.63;;;1.20;;
19782;SDS011;10051;40.294;-3.754;2023-04-03T14:01:38;4.78;;;1.10;;
19782;SDS011;10051;40.294;-3.754;2023-04-03T14:04:16;3.22;;;1.00;;
19782;SDS011;10051;40.294;-3.754;2023-04-03T14:06:47;2.00;;;0.80;;
19782;SDS011;10051;40.294;-3.754;2023-04-03T14:09:13;3.58;;;0.95;;
19782;SDS011;10051;40.294;-3.754;2023-04-03T14:11:40;2.92;;;0.90;;
19782;SDS011;10051;40.294;-3.754;2023-04-03T14:14:11;5.20;;;1.00;;
19782;SDS011;10051;40.294;-3.754;2023-04-03T14:16:41;3.60;;;0.90;;
19782;SDS011;10051;40.294;-3.754;2023-04-03T14:19:28;3.17;;;0.90;;
19782;SDS011;10051;40.294;-3.754;2023-04-03T14:21:57;2.63;;;1.10;;
19782;SDS011;10051;40.294;-3.754;2023-04-03T14:24:24;2.42;;;0.98;;
19782;SDS011;10051;40.294;-3.754;2023-04-03T14:26:50;3.78;;;1.17;;
19782;SDS011;10051;40.294;-3.754;2023-04-03T14:29:19;3.30;;;1.00;;
19782;SDS011;10051;40.294;-3.754;2023-04-03T14:31:45;2.40;;;1.00;;
19782;SDS011;10051;40.294;-3.754;2023-04-03T14:34:12;1.45;;;0.80;;
19782;SDS011;10051;40.294;-3.754;2023-04-03T14:36:39;2.00;;;0.80;;
19782;SDS011;10051;40.294;-3.754;2023-04-03T14:39:06;3.60;;;0.77;;
19782;SDS011;10051;40.294;-3.754;2023-04-03T14:41:35;3.45;;;0.80;;
19782;SDS011;10051;40.294;-3.754;2023-04-03T14:44:01;1.52;;;0.80;;
19782;SDS011;10051;40.294;-3.754;2023-04-03T14:48:55;3.28;;;0.90;;
19782;SDS011;10051;40.294;-3.754;2023-04-03T14:51:21;1.80;;;0.80;;
19782;SDS011;10051;40.294;-3.754;2023-04-03T14:53:47;2.30;;;0.98;;
19782;SDS011;10051;40.294;-3.754;2023-04-03T14:56:15;3.20;;;0.80;;
19782;SDS011;10051;40.294;-3.754;2023-04-03T14:58:47;1.42;;;0.70;;
19782;SDS011;10051;40.294;-3.754;2023-04-03T15:01:15;2.22;;;0.75;;
19782;SDS011;10051;40.294;-3.754;2023-04-03T15:03:42;4.75;;;0.70;;
19782;SDS011;10051;40.294;-3.754;2023-04-03T15:06:12;1.23;;;0.70;;
19782;SDS011;10051;40.294;-3.754;2023-04-03T15:08:38;2.47;;;0.80;;
19782;SDS011;10051;40.294;-3.754;2023-04-03T15:11:06;2.00;;;0.80;;
19782;SDS011;10051;40.294;-3.754;2023-04-03T15:13:33;3.35;;;0.65;;
19782;SDS011;10051;40.294;-3.754;2023-04-03T15:15:58;2.65;;;0.70;;
19782;SDS011;10051;40.294;-3.754;2023-04-03T15:18:25;1.38;;;0.75;;
19782;SDS011;10051;40.294;-3.754;2023-04-03T15:20:52;2.80;;;0.80;;
19782;SDS011;10051;40.294;-3.754;2023-04-03T15:23:19;2.88;;;0.70;;
19782;SDS011;10051;40.294;-3.754;2023-04-03T15:25:46;3.25;;;0.80;;
19782;SDS011;10051;40.294;-3.754;2023-04-03T15:28:26;1.73;;;0.70;;
19782;SDS011;10051;40.294;-3.754;2023-04-03T15:31:00;1.92;;;0.60;;
19782;SDS011;10051;40.294;-3.754;2023-04-03T15:33:25;1.25;;;0.73;;
19782;SDS011;10051;40.294;-3.754;2023-04-03T15:35:52;2.70;;;0.68;;
19782;SDS011;10051;40.294;-3.754;2023-04-03T15:38:17;3.15;;;0.80;;
19782;SDS011;10051;40.294;-3.754;2023-04-03T15:40:43;1.88;;;0.70;;
19782;SDS011;10051;40.294;-3.754;2023-04-03T15:43:09;1.90;;;0.68;;
19782;SDS011;10051;40.294;-3.754;2023-04-03T15:45:35;2.72;;;0.90;;
19782;SDS011;10051;40.294;-3.754;2023-04-03T15:48:03;2.40;;;0.55;;
19782;SDS011;10051;40.294;-3.754;2023-04-03T15:50:30;3.92;;;0.70;;
19782;SDS011;10051;40.294;-3.754;2023-04-03T15:52:59;0.93;;;0.55;;
19782;SDS011;10051;40.294;-3.754;2023-04-03T15:55:27;3.28;;;0.70;;
19782;SDS011;10051;40.294;-3.754;2023-04-03T15:57:53;3.55;;;0.80;;
19782;SDS011;10051;40.294;-3.754;2023-04-03T16:00:19;2.65;;;0.73;;
19782;SDS011;10051;40.294;-3.754;2023-04-03T16:02:45;2.40;;;0.77;;
19782;SDS011;10051;40.294;-3.754;2023-04-03T16:05:13;2.58;;;0.85;;
19782;SDS011;10051;40.294;-3.754;2023-04-03T16:07:42;5.25;;;0.85;;
19782;SDS011;10051;40.294;-3.754;2023-04-03T16:10:09;2.30;;;0.60;;
19782;SDS011;10051;40.294;-3.754;2023-04-03T16:12:36;2.28;;;0.73;;
19782;SDS011;10051;40.294;-3.754;2023-04-03T16:15:02;4.03;;;0.70;;
19782;SDS011;10051;40.294;-3.754;2023-04-03T16:17:29;3.63;;;0.73;;
19782;SDS011;10051;40.294;-3.754;2023-04-03T16:19:56;1.48;;;0.50;;
19782;SDS011;10051;40.294;-3.754;2023-04-03T16:22:25;1.23;;;0.70;;
19782;SDS011;10051;40.294;-3.754;2023-04-03T16:24:52;2.17;;;0.73;;
19782;SDS011;10051;40.294;-3.754;2023-04-03T16:27:18;2.10;;;0.60;;